Time;durP1;ratioP1;P1;durP2;ratioP2;P2;SDS_P1;SDS_P2;PMS_P1;PMS_P2;Temp;Humidity;BMP_temperature;BMP_pressure;BME280_temperature;BME280_humidity;BME280_pressure;Samples;Min_cycle;Max_cycle;Signal;HPM_P1;HPM_P2
2023/12/22 00:01:25;;;;;;;6.00;2.30;;;;;;;5.19;100.00;95946.14;109382;1251;64595;-75
2023/12/22 00:03:52;;;;;;;5.60;2.50;;;;;;;5.18;100.00;95946.92;109569;1251;60144;-77
2023/12/22 00:06:18;;;;;;;5.90;2.20;;;;;;;5.17;100.00;95943.81;109584;1251;60187;-76
2023/12/22 00:08:45;;;;;;;5.50;2.20;;;;;;;5.16;100.00;95946.80;109574;1251;66922;-76
2023/12/22 00:11:11;;;;;;;9.10;2.00;;;;;;;5.15;100.00;95953.40;109605;1250;61030;-77
2023/12/22 00:13:38;;;;;;;6.20;2.70;;;;;;;5.12;100.00;95953.80;109562;1251;65096;-76
2023/12/22 00:16:05;;;;;;;5.90;2.50;;;;;;;5.12;100.00;95961.78;109372;1251;59904;-76
2023/12/22 00:18:31;;;;;;;5.80;2.60;;;;;;;5.10;100.00;95968.77;109594;1251;59672;-76
2023/12/22 00:20:58;;;;;;;6.80;3.40;;;;;;;5.09;100.00;95978.00;109600;1251;67801;-77
2023/12/22 00:23:24;;;;;;;8.80;3.50;;;;;;;5.09;100.00;95979.76;109595;1251;61655;-77
2023/12/22 00:25:51;;;;;;;7.90;3.10;;;;;;;5.10;100.00;95973.55;109514;1251;65413;-76
2023/12/22 00:28:17;;;;;;;8.10;4.10;;;;;;;5.11;100.00;95971.02;109566;1251;59695;-77
2023/12/22 00:30:44;;;;;;;10.10;4.50;;;;;;;5.12;100.00;95976.56;109567;1251;59882;-76
2023/12/22 00:33:11;;;;;;;10.40;3.90;;;;;;;5.12;100.00;95975.34;109504;1251;67615;-77
2023/12/22 00:35:37;;;;;;;7.00;3.70;;;;;;;5.13;100.00;95975.72;109574;1251;61367;-76
2023/12/22 00:38:04;;;;;;;7.40;3.30;;;;;;;5.16;100.00;95984.21;109548;1251;65027;-77
2023/12/22 00:40:30;;;;;;;4.80;2.20;;;;;;;5.18;100.00;96004.23;109155;1251;59902;-76
2023/12/22 00:42:57;;;;;;;4.30;2.40;;;;;;;5.22;100.00;96023.67;109563;1251;59805;-76
2023/12/22 00:45:24;;;;;;;5.40;2.10;;;;;;;5.19;100.00;96036.57;109517;1251;67960;-76
2023/12/22 00:47:50;;;;;;;4.10;1.90;;;;;;;5.13;100.00;96046.86;109558;1251;61083;-75
2023/12/22 00:50:17;;;;;;;6.20;2.20;;;;;;;5.03;100.00;96038.20;109374;1251;62773;-75
2023/12/22 00:52:44;;;;;;;4.80;2.40;;;;;;;4.93;100.00;96043.37;109532;1251;59758;-76
2023/12/22 00:55:10;;;;;;;4.60;2.30;;;;;;;4.82;100.00;96054.05;109548;1251;59660;-76
2023/12/22 00:57:37;;;;;;;5.10;2.30;;;;;;;4.73;100.00;96048.89;109523;1251;66831;-75
2023/12/22 01:00:05;;;;;;;6.00;2.00;;;;;;;4.66;100.00;96058.36;109621;1250;61788;-75
2023/12/22 01:02:32;;;;;;;5.10;1.50;;;;;;;4.57;100.00;96061.91;109564;1251;63717;-76
2023/12/22 01:04:58;;;;;;;4.00;1.70;;;;;;;4.55;100.00;96065.28;109555;1251;59801;-76
2023/12/22 01:07:25;;;;;;;4.90;1.40;;;;;;;4.55;100.00;96070.56;109557;1251;59966;-76
2023/12/22 01:09:52;;;;;;;4.50;1.20;;;;;;;4.52;100.00;96071.19;109353;1251;67945;-76
2023/12/22 01:12:18;;;;;;;7.80;2.00;;;;;;;4.46;100.00;96070.09;109599;1251;61084;-76
2023/12/22 01:14:45;;;;;;;6.80;1.70;;;;;;;4.45;100.00;96075.20;109543;1251;65062;-76
2023/12/22 01:17:12;;;;;;;3.50;1.60;;;;;;;4.42;100.00;96077.84;109527;1251;59790;-76
2023/12/22 01:19:38;;;;;;;6.30;1.80;;;;;;;4.41;100.00;96082.54;109569;1251;59801;-76
2023/12/22 01:22:05;;;;;;;4.60;2.10;;;;;;;4.38;100.00;96087.36;109572;1251;67777;-77
2023/12/22 01:24:32;;;;;;;6.00;2.10;;;;;;;4.34;100.00;96090.48;109613;1250;59971;-76
2023/12/22 01:26:59;;;;;;;5.30;1.80;;;;;;;4.32;100.00;96092.98;109570;1251;65382;-76
2023/12/22 01:29:26;;;;;;;3.90;1.50;;;;;;;4.30;100.00;96097.92;109494;1251;59796;-77
2023/12/22 01:31:52;;;;;;;5.30;1.90;;;;;;;4.27;100.00;96097.97;109573;1251;59664;-76
2023/12/22 01:34:19;;;;;;;5.10;1.30;;;;;;;4.22;100.00;96101.98;109553;1251;66946;-76
2023/12/22 01:36:45;;;;;;;4.10;1.30;;;;;;;4.15;100.00;96099.73;109580;1251;61504;-76
2023/12/22 01:39:12;;;;;;;3.60;1.40;;;;;;;4.11;100.00;96108.02;109564;1251;65062;-76
2023/12/22 01:41:38;;;;;;;4.20;1.30;;;;;;;4.09;100.00;96109.80;109535;1251;59758;-76
2023/12/22 01:44:05;;;;;;;4.30;1.70;;;;;;;4.08;100.00;96111.24;109559;1251;60182;-77
2023/12/22 01:46:33;;;;;;;7.10;1.50;;;;;;;4.09;100.00;96112.20;109531;1251;67013;-77
2023/12/22 01:49:03;;;;;;;4.10;1.60;;;;;;;4.13;100.00;96115.73;109504;1253;61095;-76
2023/12/22 01:51:31;;;;;;;4.90;1.50;;;;;;;4.17;100.00;96123.14;109550;1251;63986;-76
2023/12/22 01:53:59;;;;;;;5.60;1.60;;;;;;;4.20;100.00;96116.73;109519;1251;59906;-77
2023/12/22 01:56:26;;;;;;;5.40;2.00;;;;;;;4.23;100.00;96108.86;109588;1251;59650;-76
2023/12/22 01:58:57;;;;;;;4.50;1.60;;;;;;;4.26;100.00;96105.66;109550;1251;66742;-77
2023/12/22 02:01:24;;;;;;;6.40;2.20;;;;;;;4.28;100.00;96115.70;109390;1251;60926;-76
2023/12/22 02:03:53;;;;;;;5.60;2.20;;;;;;;4.28;100.00;96118.83;109525;1251;64245;-76
2023/12/22 02:06:20;;;;;;;8.60;2.70;;;;;;;4.29;100.00;96118.06;109136;1251;59779;-77
2023/12/22 02:08:48;;;;;;;7.20;2.60;;;;;;;4.29;100.00;96115.94;109613;1251;59782;-77
2023/12/22 02:11:15;;;;;;;11.50;3.60;;;;;;;4.29;100.00;96109.08;109564;1251;67765;-76
2023/12/22 02:13:45;;;;;;;10.60;4.10;;;;;;;4.28;100.00;96103.52;109601;1251;59952;-77
2023/12/22 02:16:23;;;;;;;9.30;2.80;;;;;;;4.26;100.00;96095.80;109547;1251;63866;-77
2023/12/22 02:18:52;;;;;;;5.90;2.60;;;;;;;4.23;100.00;96099.25;109579;1250;59813;-77
2023/12/22 02:21:19;;;;;;;5.80;2.20;;;;;;;4.18;100.00;96104.41;109607;1251;59802;-77
2023/12/22 02:23:47;;;;;;;6.00;3.00;;;;;;;4.13;100.00;96103.98;109576;1251;67776;-77
2023/12/22 02:26:28;;;;;;;4.70;2.10;;;;;;;4.08;100.00;96100.73;109574;1251;61047;-77
2023/12/22 02:28:57;;;;;;;7.40;2.40;;;;;;;4.03;100.00;96094.63;109330;1251;65391;-76
2023/12/22 02:31:48;;;;;;;8.90;3.10;;;;;;;4.00;100.00;96085.10;109575;1251;59783;-75
2023/12/22 02:34:19;;;;;;;6.50;3.50;;;;;;;3.95;100.00;96091.80;109565;1251;59949;-76
2023/12/22 02:36:48;;;;;;;6.70;3.60;;;;;;;3.93;100.00;96105.74;109589;1251;66854;-75
2023/12/22 02:39:18;;;;;;;18.50;6.80;;;;;;;3.92;100.00;96104.02;109484;1251;60061;-76
2023/12/22 02:41:46;;;;;;;16.30;5.20;;;;;;;3.93;100.00;96097.42;109531;1251;63994;-76
2023/12/22 02:44:12;;;;;;;11.30;5.70;;;;;;;3.93;100.00;96096.67;109591;1251;59868;-76
2023/12/22 02:46:40;;;;;;;10.10;4.50;;;;;;;3.93;100.00;96100.46;109177;1256;59872;-76
2023/12/22 02:49:07;;;;;;;8.90;4.00;;;;;;;3.91;100.00;96089.01;109572;1251;66736;-76
2023/12/22 02:51:33;;;;;;;14.10;7.00;;;;;;;3.92;100.00;96092.08;109576;1250;60184;-76
2023/12/22 02:54:00;;;;;;;8.70;3.70;;;;;;;3.93;100.00;96090.73;109544;1251;64980;-77
2023/12/22 02:56:27;;;;;;;7.10;3.60;;;;;;;3.95;100.00;96081.81;109501;1250;59760;-77
2023/12/22 02:58:53;;;;;;;9.50;4.40;;;;;;;3.97;100.00;96083.37;109609;1251;59807;-76
2023/12/22 03:01:20;;;;;;;6.00;3.30;;;;;;;3.96;100.00;96088.02;109547;1251;68146;-76
2023/12/22 03:03:46;;;;;;;10.50;4.40;;;;;;;3.93;100.00;96094.43;109548;1250;61039;-77
2023/12/22 03:06:13;;;;;;;7.00;3.60;;;;;;;3.91;100.00;96098.30;109523;1251;65051;-76
2023/12/22 03:08:39;;;;;;;5.80;3.50;;;;;;;3.91;100.00;96109.01;109561;1251;59748;-77
2023/12/22 03:11:06;;;;;;;8.40;3.90;;;;;;;3.90;100.00;96112.08;109548;1251;59812;-76
2023/12/22 03:13:32;;;;;;;6.00;3.00;;;;;;;3.88;100.00;96103.00;109561;1251;67683;-76
2023/12/22 03:15:59;;;;;;;3.20;1.30;;;;;;;3.85;100.00;96115.49;109582;1251;60169;-76
2023/12/22 03:18:25;;;;;;;4.00;2.20;;;;;;;3.83;100.00;96114.79;109523;1251;64881;-77
2023/12/22 03:20:52;;;;;;;2.60;1.50;;;;;;;3.82;100.00;96108.92;109549;1251;59984;-77
2023/12/22 03:23:18;;;;;;;5.10;1.10;;;;;;;3.82;100.00;96114.20;109622;1251;59918;-76
2023/12/22 03:25:45;;;;;;;3.80;1.20;;;;;;;3.80;100.00;96118.58;109554;1251;67812;-76
2023/12/22 03:28:12;;;;;;;3.20;1.10;;;;;;;3.82;100.00;96120.90;109394;1251;61237;-76
2023/12/22 03:30:39;;;;;;;4.80;1.60;;;;;;;3.83;100.00;96113.24;109552;1251;65287;-77
2023/12/22 03:33:06;;;;;;;5.30;1.40;;;;;;;3.85;100.00;96120.94;109561;1251;59808;-76
2023/12/22 03:35:32;;;;;;;3.40;1.80;;;;;;;3.91;100.00;96133.45;109595;1251;59762;-76
2023/12/22 03:37:59;;;;;;;5.20;2.10;;;;;;;3.95;100.00;96133.10;109579;1251;66780;-77
2023/12/22 03:40:26;;;;;;;8.60;2.10;;;;;;;3.97;100.00;96126.60;109579;1251;61036;-76
2023/12/22 03:42:52;;;;;;;3.40;1.70;;;;;;;3.98;100.00;96124.44;109572;1250;65475;-76
2023/12/22 03:45:21;;;;;;;3.60;2.20;;;;;;;3.98;100.00;96123.38;109588;1251;59828;-76
2023/12/22 03:47:47;;;;;;;5.20;2.10;;;;;;;3.99;100.00;96126.84;109632;1251;59845;-76
2023/12/22 03:50:14;;;;;;;4.50;2.10;;;;;;;3.96;100.00;96115.23;109562;1251;67829;-76
2023/12/22 03:52:40;;;;;;;7.40;3.00;;;;;;;3.94;100.00;96112.48;109267;1251;60193;-76
2023/12/22 03:55:07;;;;;;;7.20;1.80;;;;;;;3.90;100.00;96109.30;109588;1251;64226;-76
2023/12/22 03:57:34;;;;;;;7.10;1.60;;;;;;;3.86;100.00;96100.33;109449;1251;149961;-76
2023/12/22 04:00:00;;;;;;;5.90;2.80;;;;;;;3.83;100.00;96091.86;109581;1251;59933;-76
2023/12/22 04:02:27;;;;;;;8.90;2.40;;;;;;;3.80;100.00;96096.87;109625;1250;67885;-77
2023/12/22 04:04:54;;;;;;;4.20;1.80;;;;;;;3.78;100.00;96099.66;109563;1250;60121;-77
2023/12/22 04:07:20;;;;;;;3.50;1.60;;;;;;;3.77;100.00;96097.08;109513;1251;64610;-77
2023/12/22 04:09:47;;;;;;;6.20;2.10;;;;;;;3.76;100.00;96095.38;109544;1251;59784;-76
2023/12/22 04:12:14;;;;;;;7.40;1.90;;;;;;;3.75;100.00;96102.53;109581;1251;59746;-77
2023/12/22 04:14:40;;;;;;;6.40;1.80;;;;;;;3.74;100.00;96097.68;109329;1251;66764;-75
2023/12/22 04:17:07;;;;;;;3.90;1.90;;;;;;;3.71;100.00;96090.51;109547;1251;59822;-77
2023/12/22 04:19:33;;;;;;;7.00;2.80;;;;;;;3.69;100.00;96083.15;109568;1251;65153;-77
2023/12/22 04:22:00;;;;;;;4.60;2.20;;;;;;;3.64;100.00;96072.21;109558;1251;59831;-76
2023/12/22 04:24:27;;;;;;;5.90;2.30;;;;;;;3.59;100.00;96069.28;109630;1251;59839;-77
2023/12/22 04:26:53;;;;;;;7.60;2.40;;;;;;;3.56;100.00;96074.99;109527;1253;68077;-76
2023/12/22 04:29:20;;;;;;;8.00;2.30;;;;;;;3.55;100.00;96072.13;109579;1251;61023;-76
2023/12/22 04:31:46;;;;;;;6.50;2.10;;;;;;;3.53;100.00;96072.61;109518;1251;64065;-76
2023/12/22 04:34:14;;;;;;;7.10;2.30;;;;;;;3.54;100.00;96074.16;109592;1251;60048;-77
2023/12/22 04:36:41;;;;;;;7.90;2.40;;;;;;;3.52;100.00;96067.11;109566;1251;59707;-77
2023/12/22 04:39:07;;;;;;;5.20;1.50;;;;;;;3.49;100.00;96071.86;109593;1251;67759;-77
2023/12/22 04:41:34;;;;;;;9.50;2.40;;;;;;;3.49;100.00;96065.75;109606;1251;60090;-76
2023/12/22 04:44:03;;;;;;;4.70;2.00;;;;;;;3.50;100.00;96060.39;109540;1251;65287;-77
2023/12/22 04:46:30;;;;;;;4.80;1.90;;;;;;;3.51;100.00;96054.36;109569;1251;59794;-76
2023/12/22 04:48:56;;;;;;;5.40;2.10;;;;;;;3.55;100.00;96056.14;109562;1251;59829;-77
2023/12/22 04:51:23;;;;;;;6.10;2.10;;;;;;;3.58;100.00;96052.00;109413;1251;66896;-76
2023/12/22 04:53:50;;;;;;;2.90;1.50;;;;;;;3.61;100.00;96055.27;109598;1250;60070;-76
2023/12/22 04:56:16;;;;;;;8.30;2.00;;;;;;;3.63;100.00;96058.98;109262;1251;64017;-76
2023/12/22 04:58:43;;;;;;;9.30;1.90;;;;;;;3.67;100.00;96073.36;109588;1251;59874;-76
2023/12/22 05:01:10;;;;;;;6.10;2.10;;;;;;;3.71;100.00;96085.30;109555;1251;59734;-77
2023/12/22 05:03:36;;;;;;;6.10;2.20;;;;;;;3.73;100.00;96088.10;109536;1251;66800;-76
2023/12/22 05:06:03;;;;;;;4.70;1.40;;;;;;;3.75;100.00;96093.91;109581;1251;60146;-77
2023/12/22 05:08:30;;;;;;;7.10;2.00;;;;;;;3.78;100.00;96100.05;109535;1251;65614;-77
2023/12/22 05:10:56;;;;;;;6.40;1.90;;;;;;;3.78;100.00;96100.52;109537;1251;59869;-76
2023/12/22 05:13:23;;;;;;;6.30;2.10;;;;;;;3.77;100.00;96092.17;109621;1251;59769;-76
2023/12/22 05:15:50;;;;;;;5.80;2.20;;;;;;;3.73;100.00;96093.73;109602;1250;67549;-76
2023/12/22 05:18:16;;;;;;;9.60;2.90;;;;;;;3.69;100.00;96113.23;109640;1250;60054;-77
2023/12/22 05:20:43;;;;;;;6.20;2.30;;;;;;;3.64;100.00;96119.93;109541;1251;65089;-76
2023/12/22 05:23:10;;;;;;;5.00;1.80;;;;;;;3.47;100.00;96127.71;109526;1251;60095;-76
2023/12/22 05:25:37;;;;;;;7.50;2.00;;;;;;;3.23;100.00;96149.39;109621;1253;59795;-76
2023/12/22 05:28:03;;;;;;;3.50;1.80;;;;;;;2.89;100.00;96164.77;109596;1251;67784;-76
2023/12/22 05:30:30;;;;;;;3.00;1.40;;;;;;;2.52;100.00;96182.15;109593;1251;61257;-75
2023/12/22 05:32:57;;;;;;;5.30;1.70;;;;;;;2.17;100.00;96183.86;109392;1251;65042;-75
2023/12/22 05:35:23;;;;;;;2.10;1.60;;;;;;;1.85;100.00;96184.61;109542;1251;59921;-76
2023/12/22 05:37:50;;;;;;;1.60;1.40;;;;;;;1.59;100.00;96196.36;109557;1251;60604;-74
2023/12/22 05:40:17;;;;;;;1.30;1.20;;;;;;;1.43;100.00;96186.92;109589;1251;66417;-74
2023/12/22 05:42:43;;;;;;;3.30;1.70;;;;;;;1.31;100.00;96183.64;109541;1251;60010;-74
2023/12/22 05:45:11;;;;;;;3.20;2.00;;;;;;;1.23;100.00;96184.41;109600;1251;65387;-74
2023/12/22 05:47:37;;;;;;;2.80;1.80;;;;;;;1.18;100.00;96183.36;109545;1251;59775;-75
2023/12/22 05:50:04;;;;;;;4.30;1.70;;;;;;;1.15;100.00;96181.68;109496;1251;59876;-74
2023/12/22 05:52:31;;;;;;;4.30;1.50;;;;;;;1.12;100.00;96180.30;108763;1251;1002547;-75
2023/12/22 05:54:58;;;;;;;4.70;2.00;;;;;;;1.10;100.00;96180.80;109536;1251;60146;-75
2023/12/22 05:57:25;;;;;;;3.30;1.80;;;;;;;1.11;100.00;96183.86;109470;1251;64033;-75
2023/12/22 05:59:52;;;;;;;6.30;2.10;;;;;;;1.15;100.00;96181.70;109559;1251;59854;-75
2023/12/22 06:02:19;;;;;;;3.30;1.70;;;;;;;1.17;100.00;96186.43;109607;1251;59833;-76
2023/12/22 06:04:46;;;;;;;3.30;1.50;;;;;;;1.15;100.00;96192.52;109595;1251;75935;-76
2023/12/22 06:07:12;;;;;;;4.00;1.80;;;;;;;1.13;100.00;96185.66;109587;1251;61431;-76
2023/12/22 06:09:39;;;;;;;5.00;2.30;;;;;;;1.12;100.00;96192.73;109311;1251;64205;-76
2023/12/22 06:12:06;;;;;;;3.80;1.90;;;;;;;1.10;100.00;96196.67;109559;1251;60038;-76
2023/12/22 06:14:34;;;;;;;6.20;2.20;;;;;;;1.09;100.00;96202.04;109596;1251;59901;-76
2023/12/22 06:17:01;;;;;;;6.40;2.50;;;;;;;1.05;100.00;96204.75;109562;1251;68046;-76
2023/12/22 06:19:30;;;;;;;5.90;2.50;;;;;;;1.04;100.00;96198.91;109543;1251;60827;-75
2023/12/22 06:22:00;;;;;;;4.60;2.20;;;;;;;1.05;100.00;96198.15;109541;1251;64091;-75
2023/12/22 06:24:27;;;;;;;6.10;1.90;;;;;;;1.06;100.00;96206.30;109541;1251;59904;-76
2023/12/22 06:26:54;;;;;;;4.60;2.10;;;;;;;1.06;100.00;96211.13;109546;1251;59817;-75
2023/12/22 06:29:20;;;;;;;5.20;1.90;;;;;;;1.08;100.00;96221.55;109574;1253;67486;-75
2023/12/22 06:31:50;;;;;;;7.30;2.10;;;;;;;1.09;100.00;96222.34;109563;1251;61168;-75
2023/12/22 06:34:17;;;;;;;6.70;1.80;;;;;;;1.09;100.00;96221.63;109537;1251;65032;-75
2023/12/22 06:36:43;;;;;;;6.90;2.80;;;;;;;1.07;100.00;96226.61;109544;1251;59828;-76
2023/12/22 06:39:10;;;;;;;8.00;2.60;;;;;;;1.05;100.00;96226.06;109475;1251;59762;-77
2023/12/22 06:41:37;;;;;;;10.20;3.40;;;;;;;1.03;100.00;96231.66;109584;1250;67796;-75
2023/12/22 06:44:03;;;;;;;9.60;3.20;;;;;;;1.01;100.00;96234.80;109571;1251;61129;-75
2023/12/22 06:46:30;;;;;;;8.20;3.80;;;;;;;1.00;100.00;96249.04;109555;1251;64020;-75
2023/12/22 06:48:57;;;;;;;7.50;3.10;;;;;;;1.00;100.00;96250.09;109524;1251;59894;-75
2023/12/22 06:51:32;;;;;;;9.10;3.10;;;;;;;1.00;100.00;96252.15;109558;1251;59768;-75
2023/12/22 06:54:01;;;;;;;7.60;3.20;;;;;;;1.01;100.00;96252.15;109585;1251;65559;-75
2023/12/22 06:56:29;;;;;;;8.10;3.30;;;;;;;1.00;100.00;96251.29;109576;1251;59803;-77
2023/12/22 06:58:57;;;;;;;8.80;3.80;;;;;;;1.02;100.00;96262.19;109259;1251;64223;-75
2023/12/22 07:01:32;;;;;;;9.90;3.70;;;;;;;1.04;100.00;96263.27;109543;1253;59755;-76
2023/12/22 07:04:16;;;;;;;7.60;2.50;;;;;;;1.11;100.00;96266.95;109566;1251;59823;-76
2023/12/22 07:06:44;;;;;;;8.20;3.00;;;;;;;1.20;100.00;96258.78;109327;1251;67896;-75
2023/12/22 07:09:14;;;;;;;8.40;2.90;;;;;;;1.28;100.00;96258.02;109582;1251;60060;-76
2023/12/22 07:11:45;;;;;;;7.50;2.50;;;;;;;1.35;100.00;96255.75;109541;1251;64007;-77
2023/12/22 07:14:12;;;;;;;11.00;3.10;;;;;;;1.42;100.00;96257.84;109320;1251;59795;-76
2023/12/22 07:16:39;;;;;;;10.80;3.40;;;;;;;1.47;100.00;96249.41;109511;1251;59915;-76
2023/12/22 07:19:06;;;;;;;10.10;3.60;;;;;;;1.52;100.00;96251.27;109541;1251;67815;-76
2023/12/22 07:21:32;;;;;;;10.20;4.30;;;;;;;1.58;100.00;96250.67;109577;1251;60841;-77
2023/12/22 07:24:00;;;;;;;9.80;3.30;;;;;;;1.63;100.00;96258.71;109562;1251;65102;-76
2023/12/22 07:26:27;;;;;;;8.00;3.10;;;;;;;1.68;100.00;96254.85;109603;1251;59765;-76
2023/12/22 07:28:54;;;;;;;10.20;3.30;;;;;;;1.72;100.00;96246.86;109477;1251;59853;-77
2023/12/22 07:31:21;;;;;;;9.50;3.30;;;;;;;1.77;100.00;96243.86;109571;1251;67794;-76
2023/12/22 07:33:47;;;;;;;8.40;4.40;;;;;;;1.84;100.00;96251.02;109565;1251;61373;-77
2023/12/22 07:36:14;;;;;;;8.20;3.90;;;;;;;1.89;100.00;96250.45;109614;1251;65035;-77
2023/12/22 07:38:40;;;;;;;7.00;3.10;;;;;;;1.96;100.00;96259.21;109580;1251;59775;-77
2023/12/22 07:41:08;;;;;;;8.00;3.40;;;;;;;2.05;100.00;96259.59;109605;1251;60164;-77
2023/12/22 07:43:35;;;;;;;7.10;2.80;;;;;;;2.15;100.00;96258.31;109588;1251;67823;-77
2023/12/22 07:46:02;;;;;;;5.70;3.10;;;;;;;2.27;100.00;96266.63;109598;1251;60129;-78
2023/12/22 07:48:29;;;;;;;5.50;2.80;;;;;;;2.37;100.00;96263.21;107772;1258;1007134;-77
2023/12/22 07:50:55;;;;;;;6.70;2.20;;;;;;;2.40;100.00;96271.02;109582;1251;59803;-77
2023/12/22 07:53:22;;;;;;;4.00;1.70;;;;;;;2.43;100.00;96270.83;109555;1251;59977;-77
2023/12/22 07:55:48;;;;;;;3.60;1.90;;;;;;;2.43;100.00;96273.27;109565;1251;65563;-77
2023/12/22 07:58:17;;;;;;;4.40;2.00;;;;;;;2.47;100.00;96281.57;109253;1250;60109;-77
2023/12/22 08:00:43;;;;;;;3.10;1.60;;;;;;;2.53;100.00;96285.11;109522;1251;65476;-77
2023/12/22 08:03:10;;;;;;;4.50;2.00;;;;;;;2.55;100.00;96283.04;109518;1251;59786;-77
2023/12/22 08:05:37;;;;;;;5.00;2.30;;;;;;;2.56;100.00;96274.54;109412;1251;59811;-77
2023/12/22 08:08:04;;;;;;;5.80;2.10;;;;;;;2.59;100.00;96273.95;109584;1251;66829;-77
2023/12/22 08:10:30;;;;;;;4.40;2.00;;;;;;;2.67;100.00;96274.74;109571;1251;61403;-77
2023/12/22 08:12:57;;;;;;;5.40;1.70;;;;;;;2.77;100.00;96275.02;109606;1251;65262;-75
2023/12/22 08:15:23;;;;;;;3.00;1.40;;;;;;;2.92;100.00;96270.16;109526;1251;59911;-77
2023/12/22 08:17:51;;;;;;;5.10;1.90;;;;;;;3.07;100.00;96268.23;109562;1251;59843;-77
2023/12/22 08:20:19;;;;;;;8.20;2.70;;;;;;;3.20;100.00;96262.80;109592;1251;67003;-77
2023/12/22 08:22:46;;;;;;;4.10;1.80;;;;;;;3.27;100.00;96262.17;109470;1253;60740;-77
2023/12/22 08:25:14;;;;;;;3.80;1.80;;;;;;;3.32;100.00;96265.85;109587;1251;65047;-78
2023/12/22 08:27:42;;;;;;;5.40;1.90;;;;;;;3.31;100.00;96267.00;109304;1251;59775;-77
2023/12/22 08:30:09;;;;;;;6.00;2.10;;;;;;;3.26;100.00;96268.23;109617;1251;59800;-77
2023/12/22 08:32:36;;;;;;;5.40;1.90;;;;;;;3.21;100.00;96275.70;109539;1251;66827;-77
2023/12/22 08:35:04;;;;;;;6.00;1.40;;;;;;;3.15;100.00;96285.29;109348;1251;60107;-77
2023/12/22 08:37:31;;;;;;;4.00;1.40;;;;;;;3.11;100.00;96288.77;109477;1251;64838;-77
2023/12/22 08:39:58;;;;;;;5.00;2.00;;;;;;;3.11;100.00;96285.10;109524;1251;59790;-77
2023/12/22 08:42:26;;;;;;;8.60;1.90;;;;;;;3.14;100.00;96289.95;109519;1251;59839;-77
2023/12/22 08:44:53;;;;;;;4.00;1.60;;;;;;;3.17;100.00;96289.48;109337;1251;67810;-77
2023/12/22 08:47:20;;;;;;;3.70;1.70;;;;;;;3.14;100.00;96288.90;109556;1251;61407;-77
2023/12/22 08:49:46;;;;;;;2.30;1.20;;;;;;;3.08;100.00;96294.27;109558;1251;65120;-77
2023/12/22 08:52:13;;;;;;;4.20;1.80;;;;;;;3.06;100.00;96298.23;109541;1251;59809;-77
2023/12/22 08:54:40;;;;;;;4.30;1.90;;;;;;;3.13;100.00;96299.80;109565;1251;59879;-77
2023/12/22 08:57:06;;;;;;;3.70;2.00;;;;;;;3.26;100.00;96301.62;109582;1251;67802;-77
2023/12/22 08:59:33;;;;;;;6.10;2.60;;;;;;;3.36;100.00;96302.85;109583;1251;60138;-78
2023/12/22 09:01:59;;;;;;;6.70;2.80;;;;;;;3.39;100.00;96307.89;109552;1251;65101;-77
2023/12/22 09:04:26;;;;;;;3.50;2.20;;;;;;;3.41;100.00;96307.35;109548;1251;60065;-77
2023/12/22 09:06:53;;;;;;;6.70;2.10;;;;;;;3.45;100.00;96306.70;109601;1251;59865;-77
2023/12/22 09:09:21;;;;;;;4.20;1.70;;;;;;;3.48;100.00;96306.67;109586;1250;67721;-77
2023/12/22 09:11:48;;;;;;;4.00;1.80;;;;;;;3.48;100.00;96303.36;109629;1251;61028;-77
2023/12/22 09:14:14;;;;;;;1.90;1.20;;;;;;;3.47;100.00;96300.91;109532;1251;65118;-77
2023/12/22 09:16:42;;;;;;;4.00;1.80;;;;;;;3.46;100.00;96299.09;109569;1251;59749;-77
2023/12/22 09:19:09;;;;;;;3.80;1.80;;;;;;;3.44;100.00;96303.09;109576;1251;59727;-76
2023/12/22 09:21:35;;;;;;;2.60;1.70;;;;;;;3.42;100.00;96306.98;109535;1251;67713;-76
2023/12/22 09:24:02;;;;;;;4.30;2.00;;;;;;;3.39;100.00;96305.48;109600;1251;61189;-77
2023/12/22 09:26:29;;;;;;;4.90;2.20;;;;;;;3.37;100.00;96301.03;109559;1251;64001;-76
2023/12/22 09:28:55;;;;;;;5.00;1.80;;;;;;;3.36;100.00;96300.13;109551;1251;60057;-76
2023/12/22 09:31:22;;;;;;;2.90;1.50;;;;;;;3.36;100.00;96291.70;109561;1251;59784;-76
2023/12/22 09:33:49;;;;;;;3.90;2.30;;;;;;;3.40;100.00;96292.60;109591;1251;67466;-77
2023/12/22 09:36:15;;;;;;;2.40;1.20;;;;;;;3.47;100.00;96286.94;109509;1251;61090;-78
2023/12/22 09:38:43;;;;;;;5.00;1.30;;;;;;;3.61;100.00;96276.42;109269;1251;64102;-76
2023/12/22 09:41:10;;;;;;;4.90;1.50;;;;;;;3.75;100.00;96275.48;109545;1251;59820;-76
2023/12/22 09:43:37;;;;;;;4.30;1.80;;;;;;;3.72;100.00;96278.48;109562;1251;59990;-76
2023/12/22 09:46:05;;;;;;;3.50;1.90;;;;;;;3.62;100.00;96278.46;109519;1251;68022;-77
2023/12/22 09:48:35;;;;;;;4.20;1.90;;;;;;;3.51;100.00;96282.00;109578;1251;61066;-77
2023/12/22 09:51:02;;;;;;;3.10;2.10;;;;;;;3.47;100.00;96286.89;109589;1251;65060;-77
2023/12/22 09:53:31;;;;;;;5.70;2.10;;;;;;;3.48;100.00;96284.14;109539;1251;59793;-77
2023/12/22 09:55:59;;;;;;;4.00;2.20;;;;;;;3.49;100.00;96285.52;109551;1251;59746;-78
2023/12/22 09:58:25;;;;;;;8.30;3.30;;;;;;;3.45;100.00;96284.59;109569;1251;66533;-78
2023/12/22 10:00:53;;;;;;;6.50;2.80;;;;;;;3.41;100.00;96283.87;109587;1251;60184;-78
2023/12/22 10:03:21;;;;;;;5.30;2.30;;;;;;;3.42;100.00;96279.27;109559;1251;64049;-78
2023/12/22 10:05:48;;;;;;;9.40;3.70;;;;;;;3.49;100.00;96278.48;109299;1251;59880;-78
2023/12/22 10:08:15;;;;;;;7.40;3.40;;;;;;;3.57;100.00;96266.62;109589;1251;59968;-77
2023/12/22 10:10:45;;;;;;;6.40;3.10;;;;;;;3.57;100.00;96262.23;109567;1251;67787;-78
2023/12/22 10:13:12;;;;;;;8.40;3.40;;;;;;;3.52;100.00;96257.73;109560;1254;61134;-78
2023/12/22 10:15:42;;;;;;;7.40;3.90;;;;;;;3.47;100.00;96276.38;109530;1251;65111;-77
2023/12/22 10:18:09;;;;;;;;;;;;;;;3.49;100.00;96281.66;109556;1253;59685;-77
2023/12/22 10:20:36;;;;;;;13.20;4.30;;;;;;;3.52;100.00;96274.39;109496;1251;59919;-77
2023/12/22 10:23:03;;;;;;;9.80;3.30;;;;;;;3.58;100.00;96273.52;109618;1251;67988;-77
2023/12/22 10:25:30;;;;;;;7.80;2.90;;;;;;;3.66;100.00;96267.77;109608;1251;61269;-77
2023/12/22 10:27:57;;;;;;;8.30;3.00;;;;;;;3.72;100.00;96258.50;109566;1251;64772;-77
2023/12/22 10:30:27;;;;;;;7.00;2.90;;;;;;;3.75;100.00;96256.49;109559;1251;59864;-78
2023/12/22 10:32:54;;;;;;;8.50;3.10;;;;;;;3.79;100.00;96260.95;109546;1251;59905;-75
2023/12/22 10:35:21;;;;;;;6.20;3.30;;;;;;;3.83;100.00;96250.05;109530;1251;67882;-74
2023/12/22 10:37:51;;;;;;;8.00;3.00;;;;;;;3.85;100.00;96248.07;109423;1251;60713;-75
2023/12/22 10:40:17;;;;;;;7.80;3.20;;;;;;;3.87;100.00;96239.70;109580;1251;65241;-74
2023/12/22 10:42:44;;;;;;;8.50;2.30;;;;;;;3.90;100.00;96232.94;109568;1251;59810;-75
2023/12/22 10:45:11;;;;;;;7.60;3.40;;;;;;;3.96;100.00;96229.66;109556;1251;59860;-75
2023/12/22 10:47:39;;;;;;;8.40;2.30;;;;;;;4.00;100.00;96236.70;109558;1251;67811;-75
2023/12/22 10:50:06;;;;;;;4.00;2.00;;;;;;;4.03;100.00;96231.01;109560;1251;60045;-75
2023/12/22 10:52:34;;;;;;;5.50;2.60;;;;;;;4.13;100.00;96207.84;109567;1251;64968;-75
2023/12/22 10:55:00;;;;;;;7.90;2.40;;;;;;;4.25;100.00;96193.21;109519;1251;59800;-74
2023/12/22 10:57:27;;;;;;;7.50;2.30;;;;;;;4.32;100.00;96191.23;109600;1251;59765;-75
2023/12/22 10:59:57;;;;;;;5.10;2.60;;;;;;;4.29;100.00;96192.54;109538;1251;66770;-75
2023/12/22 11:02:27;;;;;;;5.20;2.30;;;;;;;4.31;100.00;96210.13;109596;1251;61128;-75
2023/12/22 11:05:01;;;;;;;6.30;2.10;;;;;;;4.41;100.00;96209.63;109578;1251;64054;-75
2023/12/22 11:07:28;;;;;;;5.80;2.80;;;;;;;4.48;100.00;96201.27;109576;1251;60155;-75
2023/12/22 11:10:03;;;;;;;7.70;2.50;;;;;;;4.43;100.00;96187.63;109587;1251;59888;-75
2023/12/22 11:12:33;;;;;;;5.10;2.80;;;;;;;4.35;100.00;96190.28;109569;1251;67929;-75
2023/12/22 11:15:01;;;;;;;3.90;1.50;;;;;;;4.32;100.00;96190.51;109582;1251;60182;-75
2023/12/22 11:17:30;;;;;;;5.00;1.80;;;;;;;4.40;100.00;96190.36;109562;1251;65368;-75
2023/12/22 11:19:57;;;;;;;7.10;2.60;;;;;;;4.41;100.00;96201.72;109564;1251;59786;-75
2023/12/22 11:22:25;;;;;;;2.10;1.50;;;;;;;4.35;100.00;96223.34;109555;1251;59886;-75
2023/12/22 11:24:53;;;;;;;3.20;1.70;;;;;;;4.31;100.00;96225.23;109249;1251;66725;-75